createdAt,value
2022-08-18T00:01:22.541Z,18.34
2022-08-18T00:03:55.902Z,18.11
2022-08-18T00:06:28.369Z,18.28
2022-08-18T00:08:59.995Z,18.26
2022-08-18T00:11:41.044Z,18.23
2022-08-18T00:14:14.592Z,18.25
2022-08-18T00:16:52.058Z,18.26
2022-08-18T00:19:20.621Z,18.30
2022-08-18T00:22:09.160Z,18.30
2022-08-18T00:24:48.086Z,18.31
2022-08-18T00:27:23.302Z,17.98
2022-08-18T00:29:54.611Z,18.27
2022-08-18T00:32:25.279Z,18.13
2022-08-18T00:34:54.387Z,18.31
2022-08-18T00:37:23.724Z,18.25
2022-08-18T00:39:54.466Z,18.16
2022-08-18T00:42:29.907Z,18.09
2022-08-18T00:45:01.905Z,18.00
2022-08-18T00:47:42.078Z,17.97
2022-08-18T00:50:17.542Z,17.77
2022-08-18T00:52:50.633Z,17.97
2022-08-18T00:55:23.480Z,17.96
2022-08-18T00:57:55.410Z,17.66
2022-08-18T01:00:24.026Z,17.93
2022-08-18T01:02:57.746Z,17.97
2022-08-18T01:05:34.029Z,17.93
2022-08-18T01:08:03.059Z,18.01
2022-08-18T01:10:35.411Z,17.62
2022-08-18T01:13:03.850Z,17.88
2022-08-18T01:15:32.162Z,17.79
2022-08-18T01:18:23.435Z,17.33
2022-08-18T01:21:17.096Z,17.26
2022-08-18T01:23:48.815Z,17.74
2022-08-18T01:26:18.262Z,16.71
2022-08-18T01:28:49.605Z,17.54
2022-08-18T01:31:37.971Z,16.73
2022-08-18T01:34:07.689Z,17.75
2022-08-18T01:36:38.533Z,17.79
2022-08-18T01:39:10.354Z,17.55
2022-08-18T01:41:40.937Z,17.75
2022-08-18T01:44:11.739Z,17.72
2022-08-18T01:46:42.978Z,17.68
2022-08-18T01:49:13.447Z,17.58
2022-08-18T01:51:42.857Z,17.51
2022-08-18T01:54:15.993Z,17.49
2022-08-18T01:56:44.805Z,17.53
2022-08-18T01:59:14.889Z,17.57
2022-08-18T02:01:49.547Z,17.58
2022-08-18T02:04:40.571Z,17.56
2022-08-18T02:07:11.745Z,17.49
2022-08-18T02:09:43.689Z,17.48
2022-08-18T02:12:12.681Z,17.45
2022-08-18T02:14:41.373Z,17.46
2022-08-18T02:17:12.661Z,16.38
2022-08-18T02:19:44.116Z,17.47
2022-08-18T02:22:15.445Z,17.46
2022-08-18T02:24:45.843Z,17.44
2022-08-18T02:27:16.328Z,17.42
2022-08-18T02:29:44.845Z,17.34
2022-08-18T02:32:13.189Z,17.29
2022-08-18T02:34:42.978Z,17.27
2022-08-18T02:37:15.002Z,17.24
2022-08-18T02:39:45.340Z,17.10
2022-08-18T02:42:16.497Z,17.20
2022-08-18T02:44:44.961Z,17.26
2022-08-18T02:47:13.278Z,17.28
2022-08-18T02:49:41.653Z,17.23
2022-08-18T02:52:10.479Z,17.18
2022-08-18T02:54:39.236Z,17.20
2022-08-18T02:57:10.767Z,17.24
2022-08-18T02:59:40.161Z,17.24
2022-08-18T03:02:10.317Z,17.23
2022-08-18T03:04:38.837Z,17.23
2022-08-18T03:07:08.785Z,17.33
2022-08-18T03:09:37.613Z,17.24
2022-08-18T03:12:07.368Z,17.29
2022-08-18T03:14:40.154Z,17.30
2022-08-18T03:17:09.807Z,17.26
2022-08-18T03:19:38.657Z,17.20
2022-08-18T03:22:28.112Z,16.95
2022-08-18T03:24:57.837Z,17.11
2022-08-18T03:27:26.634Z,17.12
2022-08-18T03:29:56.622Z,17.17
2022-08-18T03:32:27.075Z,17.20
2022-08-18T03:34:55.468Z,17.26
2022-08-18T03:37:23.741Z,17.30
2022-08-18T03:39:53.040Z,17.36
2022-08-18T03:42:21.357Z,17.38
2022-08-18T03:44:49.563Z,17.32
2022-08-18T03:47:19.499Z,17.26
2022-08-18T03:49:49.014Z,17.24
2022-08-18T03:52:17.378Z,17.26
2022-08-18T03:54:45.667Z,17.27
2022-08-18T03:57:14.614Z,17.30
2022-08-18T03:59:43.815Z,17.27
2022-08-18T04:02:13.036Z,17.28
2022-08-18T04:04:43.240Z,17.30
2022-08-18T04:07:17.337Z,17.28
2022-08-18T04:09:47.135Z,17.23
2022-08-18T04:12:17.655Z,16.16
2022-08-18T04:14:49.484Z,17.31
2022-08-18T04:17:20.438Z,17.31
2022-08-18T04:19:50.257Z,17.27
2022-08-18T04:22:18.672Z,17.22
2022-08-18T04:24:49.759Z,17.14
2022-08-18T04:27:19.359Z,17.12
2022-08-18T04:29:47.947Z,17.19
2022-08-18T04:32:16.265Z,17.25
2022-08-18T04:34:44.709Z,17.23
2022-08-18T04:37:15.633Z,17.23
2022-08-18T04:39:44.669Z,17.17
2022-08-18T04:42:13.098Z,17.11
2022-08-18T04:44:41.857Z,17.08
2022-08-18T04:47:10.933Z,17.05
2022-08-18T04:49:39.314Z,17.04
2022-08-18T04:52:39.716Z,17.05
2022-08-18T04:55:12.313Z,16.82
2022-08-18T04:57:42.642Z,16.79
2022-08-18T05:00:12.684Z,17.12
2022-08-18T05:02:41.117Z,17.10
2022-08-18T05:05:10.210Z,17.14
2022-08-18T05:07:38.469Z,17.16
2022-08-18T05:10:07.373Z,17.17
2022-08-18T05:12:37.041Z,17.18
2022-08-18T05:15:06.708Z,17.16
2022-08-18T05:17:39.763Z,17.10
2022-08-18T05:20:10.552Z,16.51
2022-08-18T05:22:40.876Z,17.17
2022-08-18T05:25:10.834Z,17.23
2022-08-18T05:27:43.826Z,16.89
2022-08-18T05:30:14.669Z,17.44
2022-08-18T05:32:48.418Z,17.54
2022-08-18T05:35:23.439Z,17.62
2022-08-18T05:38:08.028Z,17.43
2022-08-18T05:40:37.322Z,17.68
2022-08-18T05:43:08.689Z,17.51
2022-08-18T05:45:37.268Z,17.75
2022-08-18T05:48:05.739Z,17.78
2022-08-18T05:50:37.287Z,17.79
2022-08-18T05:53:13.424Z,17.79
2022-08-18T05:56:05.606Z,17.77
2022-08-18T05:58:40.565Z,17.80
2022-08-18T06:01:16.085Z,17.85
2022-08-18T06:03:49.026Z,17.89
2022-08-18T06:06:21.657Z,17.68
2022-08-18T06:08:57.738Z,18.00
2022-08-18T06:11:27.001Z,18.03
2022-08-18T06:13:59.845Z,18.06
2022-08-18T06:16:44.717Z,18.09
2022-08-18T06:19:28.289Z,18.12
2022-08-18T06:22:04.748Z,18.15
2022-08-18T06:24:40.611Z,18.16
2022-08-18T06:27:14.938Z,17.98
2022-08-18T06:30:04.625Z,18.23
2022-08-18T06:32:46.890Z,18.27
2022-08-18T06:35:25.803Z,18.35
2022-08-18T06:38:28.362Z,18.40
2022-08-18T06:41:03.118Z,17.93
2022-08-18T06:43:34.391Z,18.50
2022-08-18T06:46:09.077Z,18.53
2022-08-18T06:48:48.217Z,17.47
2022-08-18T06:51:21.287Z,18.56
2022-08-18T06:53:56.455Z,18.55
2022-08-18T06:56:28.989Z,18.51
2022-08-18T06:59:16.175Z,17.97
2022-08-18T07:01:48.664Z,18.51
2022-08-18T07:04:33.889Z,18.02
2022-08-18T07:07:14.944Z,18.54
2022-08-18T07:09:43.299Z,18.54
2022-08-18T07:12:19.936Z,18.46
2022-08-18T07:14:50.939Z,17.80
2022-08-18T07:17:43.605Z,18.66
2022-08-18T07:20:21.609Z,18.71
2022-08-18T07:22:54.746Z,18.79
2022-08-18T07:25:26.251Z,18.90
2022-08-18T07:27:56.827Z,19.02
2022-08-18T07:30:32.572Z,19.12
2022-08-18T07:33:15.066Z,19.23
2022-08-18T07:35:49.287Z,19.35
2022-08-18T07:38:44.332Z,19.44
2022-08-18T07:41:20.494Z,19.32
2022-08-18T07:44:01.261Z,19.61
2022-08-18T07:46:37.605Z,19.45
2022-08-18T07:49:07.861Z,19.74
2022-08-18T07:51:47.861Z,19.82
2022-08-18T07:54:50.622Z,19.91
2022-08-18T07:57:30.765Z,19.06
2022-08-18T08:00:18.652Z,19.02
2022-08-18T08:03:13.712Z,20.21
2022-08-18T08:05:52.536Z,20.35
2022-08-18T08:08:26.463Z,20.33
2022-08-18T08:11:16.934Z,20.52
2022-08-18T08:13:57.667Z,20.56
2022-08-18T08:16:37.441Z,20.63
2022-08-18T08:19:31.511Z,19.64
2022-08-18T08:22:17.983Z,20.71
2022-08-18T08:24:54.798Z,20.76
2022-08-18T08:27:36.117Z,20.80
2022-08-18T08:30:08.741Z,20.87
2022-08-18T08:32:44.466Z,20.92
2022-08-18T08:35:16.239Z,20.73
2022-08-18T08:38:38.665Z,21.01
2022-08-18T08:41:06.797Z,21.06
2022-08-18T08:43:39.362Z,20.23
2022-08-18T08:46:14.430Z,21.15
2022-08-18T08:48:47.197Z,20.35
2022-08-18T08:51:36.263Z,21.30
2022-08-18T08:54:12.264Z,21.36
2022-08-18T08:56:45.778Z,21.36
2022-08-18T08:59:17.214Z,20.33
2022-08-18T09:01:53.078Z,21.32
2022-08-18T09:04:33.009Z,21.27
2022-08-18T09:07:17.055Z,21.12
2022-08-18T09:10:08.978Z,21.05
2022-08-18T09:12:56.242Z,21.35
2022-08-18T09:15:43.478Z,21.38
2022-08-18T09:18:28.150Z,21.16
2022-08-18T09:21:12.463Z,21.38
2022-08-18T09:23:46.379Z,21.40
2022-08-18T09:26:39.752Z,21.42
2022-08-18T09:29:21.950Z,21.46
2022-08-18T09:31:51.188Z,21.45
2022-08-18T09:34:40.323Z,21.46
2022-08-18T09:37:21.466Z,21.48
2022-08-18T09:40:19.548Z,21.51
2022-08-18T09:42:58.204Z,21.31
2022-08-18T09:45:55.594Z,21.56
2022-08-18T09:48:30.572Z,21.57
2022-08-18T09:51:33.921Z,21.61
2022-08-18T09:54:21.565Z,21.63
2022-08-18T09:57:24.482Z,21.67
2022-08-18T09:59:57.648Z,21.72
2022-08-18T10:03:08.578Z,21.77
2022-08-18T10:05:37.242Z,21.82
2022-08-18T10:08:42.790Z,21.90
2022-08-18T10:11:32.254Z,21.97
2022-08-18T10:14:24.704Z,21.19
2022-08-18T10:17:23.579Z,21.89
2022-08-18T10:19:59.213Z,22.17
2022-08-18T10:22:41.103Z,22.27
2022-08-18T10:25:22.717Z,22.20
2022-08-18T10:27:56.647Z,21.86
2022-08-18T10:34:01.811Z,22.70
2022-08-18T10:36:43.398Z,22.79
2022-08-18T10:39:13.718Z,22.88
2022-08-18T10:41:56.948Z,22.72
2022-08-18T10:44:30.937Z,22.99
2022-08-18T10:47:02.181Z,22.96
2022-08-18T10:49:34.155Z,23.11
2022-08-18T10:52:29.419Z,23.15
2022-08-18T10:55:11.335Z,23.00
2022-08-18T10:58:02.841Z,22.40
2022-08-18T11:00:49.635Z,23.04
2022-08-18T11:03:51.603Z,23.23
2022-08-18T11:06:26.842Z,23.22
2022-08-18T11:09:03.597Z,23.20
2022-08-18T11:11:42.087Z,22.69
2022-08-18T11:14:35.501Z,23.05
2022-08-18T11:17:14.118Z,22.24
2022-08-18T11:19:47.465Z,22.99
2022-08-18T11:22:31.577Z,23.21
2022-08-18T11:25:03.284Z,23.16
2022-08-18T11:27:36.466Z,23.14
2022-08-18T11:30:07.744Z,23.10
2022-08-18T11:35:35.513Z,23.09
2022-08-18T11:38:13.634Z,23.09
2022-08-18T11:43:46.775Z,23.06
2022-08-18T11:49:24.094Z,23.04
2022-08-18T11:52:03.327Z,23.06
2022-08-18T11:54:50.981Z,23.07
2022-08-18T11:57:30.522Z,23.04
2022-08-18T12:00:00.418Z,23.06
2022-08-18T12:02:29.331Z,23.11
2022-08-18T12:05:08.497Z,23.11
2022-08-18T12:07:46.321Z,23.10
2022-08-18T12:10:29.710Z,23.11
2022-08-18T12:13:00.613Z,23.14
2022-08-18T12:15:44.203Z,22.34
2022-08-18T12:18:28.066Z,23.11
2022-08-18T12:20:58.957Z,23.11
2022-08-18T12:23:28.103Z,23.13
2022-08-18T12:26:27.320Z,23.13
2022-08-18T12:29:01.475Z,23.13
2022-08-18T12:31:42.043Z,23.16
2022-08-18T12:34:17.918Z,23.13
2022-08-18T12:36:55.858Z,23.12
2022-08-18T12:39:24.977Z,23.12
2022-08-18T12:41:54.769Z,23.13
2022-08-18T12:44:23.173Z,23.12
2022-08-18T12:46:56.191Z,23.10
2022-08-18T12:49:26.464Z,23.11
2022-08-18T12:51:55.773Z,23.07
2022-08-18T12:57:33.282Z,22.85
2022-08-18T13:00:15.359Z,23.00
2022-08-18T13:02:48.087Z,23.01
2022-08-18T13:05:17.653Z,23.02
2022-08-18T13:07:55.317Z,23.02
2022-08-18T13:10:45.772Z,22.99
2022-08-18T13:13:17.280Z,22.92
2022-08-18T13:15:55.410Z,22.93
2022-08-18T13:18:28.795Z,22.92
2022-08-18T13:20:58.353Z,22.91
2022-08-18T13:23:28.623Z,22.93
2022-08-18T13:26:01.427Z,22.92
2022-08-18T13:28:36.138Z,22.71
2022-08-18T13:31:18.266Z,22.90
2022-08-18T13:33:56.806Z,22.91
2022-08-18T13:36:28.882Z,22.88
2022-08-18T13:38:57.591Z,22.84
2022-08-18T13:43:57.022Z,22.85
2022-08-18T13:46:31.290Z,22.87
2022-08-18T13:49:03.022Z,22.86
2022-08-18T13:51:32.163Z,22.86
2022-08-18T13:54:30.449Z,22.89
2022-08-18T13:56:51.914Z,22.80
2022-08-18T13:59:23.856Z,22.77
2022-08-18T14:01:53.676Z,22.79
2022-08-18T14:04:27.745Z,22.79
2022-08-18T14:06:59.877Z,22.77
2022-08-18T14:09:36.419Z,22.72
2022-08-18T14:12:15.677Z,22.62
2022-08-18T14:14:53.708Z,22.55
2022-08-18T14:17:23.464Z,22.54
2022-08-18T14:20:21.207Z,22.53
2022-08-18T14:23:09.652Z,22.49
2022-08-18T14:25:56.032Z,22.49
2022-08-18T14:28:24.665Z,22.50
2022-08-18T14:30:55.722Z,22.51
2022-08-18T14:33:51.114Z,22.34
2022-08-18T14:36:18.117Z,22.47
2022-08-18T14:38:46.794Z,22.49
2022-08-18T14:41:20.502Z,22.50
2022-08-18T14:44:11.499Z,22.51
2022-08-18T14:46:54.143Z,22.50
2022-08-18T14:49:28.671Z,22.53
2022-08-18T14:51:59.052Z,22.59
2022-08-18T14:54:28.293Z,22.65
2022-08-18T14:56:57.244Z,22.71
2022-08-18T14:59:28.544Z,22.75
2022-08-18T15:01:58.233Z,22.83
2022-08-18T15:04:27.752Z,22.90
2022-08-18T15:06:57.493Z,22.98
2022-08-18T15:09:27.250Z,23.05
2022-08-18T15:11:58.522Z,23.15
2022-08-18T15:14:33.135Z,23.24
2022-08-18T15:17:13.308Z,23.34
2022-08-18T15:20:00.022Z,23.42
2022-08-18T15:22:47.814Z,23.51
2022-08-18T15:25:33.829Z,23.55
2022-08-18T15:28:02.448Z,23.48
2022-08-18T15:30:32.277Z,23.77
2022-08-18T15:33:03.207Z,23.87
2022-08-18T15:35:32.529Z,23.94
2022-08-18T15:38:05.071Z,24.02
2022-08-18T15:40:41.241Z,24.09
2022-08-18T15:43:10.586Z,24.15
2022-08-18T15:45:56.538Z,24.23
2022-08-18T15:48:29.704Z,24.24
2022-08-18T15:51:08.071Z,24.33
2022-08-18T15:53:44.905Z,24.39
2022-08-18T15:56:16.319Z,24.45
2022-08-18T15:58:49.540Z,24.51
2022-08-18T16:01:32.410Z,24.56
2022-08-18T16:04:03.314Z,24.60
2022-08-18T16:06:32.986Z,24.66
2022-08-18T16:09:02.075Z,24.65
2022-08-18T16:11:30.993Z,24.78
2022-08-18T16:14:00.092Z,24.84
2022-08-18T16:16:29.116Z,24.94
2022-08-18T16:19:07.742Z,25.00
2022-08-18T16:21:40.438Z,25.09
2022-08-18T16:24:09.941Z,25.02
2022-08-18T16:26:38.310Z,25.19
2022-08-18T16:29:07.650Z,25.25
2022-08-18T16:31:36.524Z,25.25
2022-08-18T16:34:06.713Z,25.32
2022-08-18T16:36:35.541Z,25.36
2022-08-18T16:39:03.952Z,25.37
2022-08-18T16:41:35.401Z,25.36
2022-08-18T16:44:03.674Z,25.38
2022-08-18T16:46:32.238Z,25.39
2022-08-18T16:49:01.281Z,25.41
2022-08-18T16:51:31.575Z,25.42
2022-08-18T16:53:59.784Z,25.44
2022-08-18T16:56:30.551Z,24.54
2022-08-18T16:59:16.585Z,25.46
2022-08-18T17:02:02.556Z,25.45
2022-08-18T17:04:34.381Z,25.46
2022-08-18T17:07:06.169Z,25.43
2022-08-18T17:09:36.029Z,25.42
2022-08-18T17:12:05.335Z,25.39
2022-08-18T17:14:36.955Z,25.03
2022-08-18T17:17:07.722Z,25.07
2022-08-18T17:19:37.680Z,25.36
2022-08-18T17:22:08.499Z,25.34
2022-08-18T17:24:37.828Z,25.33
2022-08-18T17:27:26.476Z,25.30
2022-08-18T17:30:05.890Z,25.24
2022-08-18T17:32:42.973Z,25.21
2022-08-18T17:35:15.898Z,25.16
2022-08-18T17:37:52.244Z,25.12
2022-08-18T17:40:28.631Z,25.07
2022-08-18T17:42:59.889Z,24.91
2022-08-18T17:45:36.112Z,24.99
2022-08-18T17:48:12.645Z,24.94
2022-08-18T17:51:03.842Z,24.87
2022-08-18T17:53:36.628Z,24.66
2022-08-18T17:56:13.335Z,24.72
2022-08-18T17:58:48.680Z,24.64
2022-08-18T18:01:19.678Z,24.61
2022-08-18T18:03:51.227Z,24.59
2022-08-18T18:06:32.633Z,24.55
2022-08-18T18:09:06.976Z,24.50
2022-08-18T18:11:41.578Z,24.43
2022-08-18T18:14:35.103Z,24.41
2022-08-18T18:17:12.741Z,24.20
2022-08-18T18:19:46.425Z,24.24
2022-08-18T18:22:21.673Z,24.18
2022-08-18T18:24:55.054Z,24.15
2022-08-18T18:27:31.557Z,23.30
2022-08-18T18:30:04.789Z,23.84
2022-08-18T18:32:39.157Z,24.00
2022-08-18T18:35:17.222Z,23.20
2022-08-18T18:37:53.464Z,23.82
2022-08-18T18:40:39.437Z,23.79
2022-08-18T18:43:29.121Z,23.76
2022-08-18T18:46:23.203Z,23.69
2022-08-18T18:49:05.069Z,23.45
2022-08-18T18:51:40.821Z,23.65
2022-08-18T18:54:23.820Z,23.60
2022-08-18T18:56:57.918Z,23.56
2022-08-18T18:59:47.409Z,23.49
2022-08-18T19:02:33.484Z,23.12
2022-08-18T19:05:16.415Z,23.44
2022-08-18T19:08:05.868Z,23.41
2022-08-18T19:10:42.819Z,23.37
2022-08-18T19:13:26.856Z,23.37
2022-08-18T19:16:23.535Z,23.35
2022-08-18T19:18:57.911Z,23.23
2022-08-18T19:22:03.969Z,23.25
2022-08-18T19:24:40.460Z,23.02
2022-08-18T19:27:23.311Z,23.13
2022-08-18T19:29:57.290Z,22.90
2022-08-18T19:32:33.976Z,22.10
2022-08-18T19:35:04.454Z,23.03
2022-08-18T19:37:54.034Z,22.96
2022-08-18T19:40:28.655Z,22.68
2022-08-18T19:43:04.697Z,22.35
2022-08-18T19:45:43.413Z,22.42
2022-08-18T19:48:20.098Z,22.70
2022-08-18T19:50:54.268Z,21.69
2022-08-18T19:53:54.747Z,22.71
2022-08-18T19:56:45.309Z,22.51
2022-08-18T19:59:55.231Z,22.28
2022-08-18T20:02:36.913Z,21.43
2022-08-18T20:05:20.575Z,22.38
2022-08-18T20:08:11.358Z,22.18
2022-08-18T20:11:08.596Z,22.21
2022-08-18T20:13:43.235Z,22.42
2022-08-18T20:16:28.545Z,22.45
2022-08-18T20:20:05.443Z,22.43
2022-08-18T20:22:42.342Z,22.44
2022-08-18T20:25:41.561Z,21.47
2022-08-18T20:28:33.683Z,22.41
2022-08-18T20:31:13.193Z,22.32
2022-08-18T20:33:47.151Z,22.16
2022-08-18T20:36:27.026Z,22.33
2022-08-18T20:38:57.772Z,22.32
2022-08-18T20:41:32.634Z,22.36
2022-08-18T20:44:28.875Z,22.38
2022-08-18T20:47:14.153Z,22.35
2022-08-18T20:49:58.470Z,22.30
2022-08-18T20:52:38.750Z,21.37
2022-08-18T20:55:17.989Z,21.31
2022-08-18T20:57:46.711Z,22.26
2022-08-18T21:00:26.722Z,22.29
2022-08-18T21:02:58.963Z,22.29
2022-08-18T21:05:29.512Z,21.45
2022-08-18T21:08:13.576Z,22.23
2022-08-18T21:10:50.478Z,22.09
2022-08-18T21:13:30.802Z,22.15
2022-08-18T21:15:59.943Z,22.14
2022-08-18T21:18:29.484Z,22.13
2022-08-18T21:21:00.213Z,22.13
2022-08-18T21:23:34.837Z,22.13
2022-08-18T21:26:08.048Z,22.15
2022-08-18T21:28:39.447Z,22.16
2022-08-18T21:31:42.727Z,22.16
2022-08-18T21:34:18.454Z,21.95
2022-08-18T21:36:52.773Z,22.13
2022-08-18T21:39:23.560Z,22.13
2022-08-18T21:41:54.732Z,22.11
2022-08-18T21:44:25.565Z,21.93
2022-08-18T21:47:05.813Z,21.87
2022-08-18T21:49:35.057Z,22.12
2022-08-18T21:52:03.336Z,22.14
2022-08-18T21:54:35.638Z,22.17
2022-08-18T21:57:24.747Z,22.16
2022-08-18T22:00:12.998Z,22.14
2022-08-18T22:02:41.358Z,22.14
2022-08-18T22:05:11.325Z,22.15
2022-08-18T22:07:47.979Z,22.15
2022-08-18T22:10:47.946Z,22.11
2022-08-18T22:13:39.509Z,22.11
2022-08-18T22:16:30.354Z,22.04
2022-08-18T22:19:12.826Z,22.02
2022-08-18T22:21:47.096Z,22.04
2022-08-18T22:24:20.477Z,22.04
2022-08-18T22:27:04.427Z,21.84
2022-08-18T22:29:45.540Z,21.85
2022-08-18T22:32:15.235Z,21.88
2022-08-18T22:34:44.047Z,21.86
2022-08-18T22:37:14.350Z,20.84
2022-08-18T22:39:47.235Z,21.85
2022-08-18T22:42:18.900Z,21.85
2022-08-18T22:44:47.362Z,21.84
2022-08-18T22:47:16.286Z,21.79
2022-08-18T22:49:45.405Z,21.80
2022-08-18T22:52:19.435Z,21.75
2022-08-18T22:54:49.574Z,21.73
2022-08-18T22:57:23.635Z,20.65
2022-08-18T22:59:52.371Z,21.66
2022-08-18T23:02:22.114Z,21.68
2022-08-18T23:04:50.628Z,21.70
2022-08-18T23:07:23.028Z,21.70
2022-08-18T23:09:51.354Z,21.74
2022-08-18T23:12:21.099Z,21.80
2022-08-18T23:14:49.757Z,21.81
2022-08-18T23:17:18.320Z,21.83
2022-08-18T23:19:46.952Z,21.85
2022-08-18T23:22:15.835Z,21.79
2022-08-18T23:24:44.175Z,21.93
2022-08-18T23:27:12.433Z,21.96
2022-08-18T23:29:42.220Z,21.98
2022-08-18T23:32:10.515Z,22.00
2022-08-18T23:34:38.840Z,22.02
2022-08-18T23:37:09.687Z,22.07
2022-08-18T23:39:39.675Z,22.11
2022-08-18T23:42:10.325Z,22.13
2022-08-18T23:44:38.970Z,22.12
2022-08-18T23:47:08.760Z,22.15
2022-08-18T23:49:38.404Z,22.13
2022-08-18T23:52:06.909Z,22.12
2022-08-18T23:54:36.444Z,22.12
2022-08-18T23:57:04.791Z,22.11
2022-08-18T23:59:33.119Z,22.08
